sensor_id;sensor_type;location;lat;lon;timestamp;P1;durP1;ratioP1;P2;durP2;ratioP2
18720;SDS011;9489;50.948;3.114;2023-06-05T00:02:01;13.38;;;8.65;;
18720;SDS011;9489;50.948;3.114;2023-06-05T00:04:27;12.50;;;7.30;;
18720;SDS011;9489;50.948;3.114;2023-06-05T00:06:53;12.32;;;7.43;;
18720;SDS011;9489;50.948;3.114;2023-06-05T00:09:19;13.23;;;7.55;;
18720;SDS011;9489;50.948;3.114;2023-06-05T00:11:45;12.95;;;7.97;;
18720;SDS011;9489;50.948;3.114;2023-06-05T00:14:11;10.15;;;7.28;;
18720;SDS011;9489;50.948;3.114;2023-06-05T00:16:36;11.40;;;7.13;;
18720;SDS011;9489;50.948;3.114;2023-06-05T00:19:02;8.52;;;7.25;;
18720;SDS011;9489;50.948;3.114;2023-06-05T00:21:28;11.73;;;7.07;;
18720;SDS011;9489;50.948;3.114;2023-06-05T00:23:54;10.68;;;7.40;;
18720;SDS011;9489;50.948;3.114;2023-06-05T00:26:19;10.77;;;6.65;;
18720;SDS011;9489;50.948;3.114;2023-06-05T00:28:45;9.40;;;7.65;;
18720;SDS011;9489;50.948;3.114;2023-06-05T00:31:11;10.57;;;7.05;;
18720;SDS011;9489;50.948;3.114;2023-06-05T00:33:42;9.38;;;6.32;;
18720;SDS011;9489;50.948;3.114;2023-06-05T00:36:07;9.25;;;6.53;;
18720;SDS011;9489;50.948;3.114;2023-06-05T00:38:33;10.30;;;6.93;;
18720;SDS011;9489;50.948;3.114;2023-06-05T00:40:59;9.50;;;7.05;;
18720;SDS011;9489;50.948;3.114;2023-06-05T00:43:25;13.63;;;6.93;;
18720;SDS011;9489;50.948;3.114;2023-06-05T00:45:50;11.00;;;7.07;;
18720;SDS011;9489;50.948;3.114;2023-06-05T00:48:23;12.30;;;7.50;;
18720;SDS011;9489;50.948;3.114;2023-06-05T00:50:49;10.77;;;7.07;;
18720;SDS011;9489;50.948;3.114;2023-06-05T00:53:15;10.18;;;6.70;;
18720;SDS011;9489;50.948;3.114;2023-06-05T00:55:40;13.13;;;7.57;;
18720;SDS011;9489;50.948;3.114;2023-06-05T00:58:07;10.02;;;6.75;;
18720;SDS011;9489;50.948;3.114;2023-06-05T01:00:34;12.57;;;7.45;;
18720;SDS011;9489;50.948;3.114;2023-06-05T01:03:01;10.40;;;7.38;;
18720;SDS011;9489;50.948;3.114;2023-06-05T01:05:27;10.15;;;7.50;;
18720;SDS011;9489;50.948;3.114;2023-06-05T01:07:53;10.50;;;7.47;;
18720;SDS011;9489;50.948;3.114;2023-06-05T01:10:19;9.10;;;7.85;;
18720;SDS011;9489;50.948;3.114;2023-06-05T01:15:43;10.38;;;7.93;;
18720;SDS011;9489;50.948;3.114;2023-06-05T01:18:09;11.15;;;7.65;;
18720;SDS011;9489;50.948;3.114;2023-06-05T01:20:36;9.07;;;7.70;;
18720;SDS011;9489;50.948;3.114;2023-06-05T01:23:07;9.23;;;8.25;;
18720;SDS011;9489;50.948;3.114;2023-06-05T01:25:33;13.07;;;8.20;;
18720;SDS011;9489;50.948;3.114;2023-06-05T01:30:45;11.07;;;8.45;;
18720;SDS011;9489;50.948;3.114;2023-06-05T01:36:07;10.07;;;8.27;;
18720;SDS011;9489;50.948;3.114;2023-06-05T01:38:35;10.43;;;9.07;;
18720;SDS011;9489;50.948;3.114;2023-06-05T01:41:02;10.05;;;7.72;;
18720;SDS011;9489;50.948;3.114;2023-06-05T01:43:29;10.40;;;8.90;;
18720;SDS011;9489;50.948;3.114;2023-06-05T01:45:56;9.05;;;8.07;;
18720;SDS011;9489;50.948;3.114;2023-06-05T01:48:26;16.13;;;8.90;;
18720;SDS011;9489;50.948;3.114;2023-06-05T01:50:58;10.98;;;8.85;;
18720;SDS011;9489;50.948;3.114;2023-06-05T01:53:27;10.65;;;9.45;;
18720;SDS011;9489;50.948;3.114;2023-06-05T01:55:54;10.73;;;9.13;;
18720;SDS011;9489;50.948;3.114;2023-06-05T01:58:25;11.13;;;8.60;;
18720;SDS011;9489;50.948;3.114;2023-06-05T02:00:51;10.60;;;9.13;;
18720;SDS011;9489;50.948;3.114;2023-06-05T02:03:18;9.95;;;8.95;;
18720;SDS011;9489;50.948;3.114;2023-06-05T02:05:44;11.07;;;9.77;;
18720;SDS011;9489;50.948;3.114;2023-06-05T02:08:11;13.10;;;9.65;;
18720;SDS011;9489;50.948;3.114;2023-06-05T02:10:37;12.40;;;9.75;;
18720;SDS011;9489;50.948;3.114;2023-06-05T02:13:08;10.63;;;8.90;;
18720;SDS011;9489;50.948;3.114;2023-06-05T02:15:34;9.93;;;9.00;;
18720;SDS011;9489;50.948;3.114;2023-06-05T02:18:00;10.85;;;9.75;;
18720;SDS011;9489;50.948;3.114;2023-06-05T02:20:28;13.95;;;10.40;;
18720;SDS011;9489;50.948;3.114;2023-06-05T02:22:54;9.95;;;9.13;;
18720;SDS011;9489;50.948;3.114;2023-06-05T02:25:20;11.55;;;9.38;;
18720;SDS011;9489;50.948;3.114;2023-06-05T02:27:46;10.50;;;9.48;;
18720;SDS011;9489;50.948;3.114;2023-06-05T02:30:12;10.90;;;9.75;;
18720;SDS011;9489;50.948;3.114;2023-06-05T02:32:38;11.15;;;10.00;;
18720;SDS011;9489;50.948;3.114;2023-06-05T02:35:09;12.93;;;9.93;;
18720;SDS011;9489;50.948;3.114;2023-06-05T02:37:36;11.63;;;10.32;;
18720;SDS011;9489;50.948;3.114;2023-06-05T02:40:08;11.20;;;9.85;;
18720;SDS011;9489;50.948;3.114;2023-06-05T02:42:35;11.80;;;10.60;;
18720;SDS011;9489;50.948;3.114;2023-06-05T02:45:00;11.75;;;10.45;;
18720;SDS011;9489;50.948;3.114;2023-06-05T02:47:26;11.65;;;10.38;;
18720;SDS011;9489;50.948;3.114;2023-06-05T02:49:52;12.65;;;11.35;;
18720;SDS011;9489;50.948;3.114;2023-06-05T02:52:18;13.50;;;10.25;;
18720;SDS011;9489;50.948;3.114;2023-06-05T02:54:43;12.07;;;10.88;;
18720;SDS011;9489;50.948;3.114;2023-06-05T02:57:09;12.50;;;11.27;;
18720;SDS011;9489;50.948;3.114;2023-06-05T02:59:35;13.25;;;11.95;;
18720;SDS011;9489;50.948;3.114;2023-06-05T03:02:07;13.15;;;11.88;;
18720;SDS011;9489;50.948;3.114;2023-06-05T03:04:33;14.10;;;12.65;;
18720;SDS011;9489;50.948;3.114;2023-06-05T03:06:59;13.80;;;12.38;;
18720;SDS011;9489;50.948;3.114;2023-06-05T03:09:31;13.85;;;12.30;;
18720;SDS011;9489;50.948;3.114;2023-06-05T03:11:57;14.38;;;12.82;;
18720;SDS011;9489;50.948;3.114;2023-06-05T03:14:24;14.20;;;12.23;;
18720;SDS011;9489;50.948;3.114;2023-06-05T03:16:51;13.02;;;11.73;;
18720;SDS011;9489;50.948;3.114;2023-06-05T03:19:18;14.75;;;13.07;;
18720;SDS011;9489;50.948;3.114;2023-06-05T03:21:44;15.18;;;13.40;;
18720;SDS011;9489;50.948;3.114;2023-06-05T03:24:11;14.15;;;12.55;;
18720;SDS011;9489;50.948;3.114;2023-06-05T03:26:39;15.52;;;13.85;;
18720;SDS011;9489;50.948;3.114;2023-06-05T03:29:06;14.73;;;13.18;;
18720;SDS011;9489;50.948;3.114;2023-06-05T03:31:32;14.88;;;13.35;;
18720;SDS011;9489;50.948;3.114;2023-06-05T03:33:58;15.23;;;13.70;;
18720;SDS011;9489;50.948;3.114;2023-06-05T03:36:25;17.17;;;13.50;;
18720;SDS011;9489;50.948;3.114;2023-06-05T03:38:52;15.80;;;14.20;;
18720;SDS011;9489;50.948;3.114;2023-06-05T03:41:18;16.02;;;14.02;;
18720;SDS011;9489;50.948;3.114;2023-06-05T03:43:45;16.27;;;14.35;;
18720;SDS011;9489;50.948;3.114;2023-06-05T03:46:11;15.73;;;14.10;;
18720;SDS011;9489;50.948;3.114;2023-06-05T03:48:42;15.43;;;13.85;;
18720;SDS011;9489;50.948;3.114;2023-06-05T03:51:08;15.65;;;14.00;;
18720;SDS011;9489;50.948;3.114;2023-06-05T03:53:34;16.50;;;14.88;;
18720;SDS011;9489;50.948;3.114;2023-06-05T03:56:05;18.75;;;14.90;;
18720;SDS011;9489;50.948;3.114;2023-06-05T03:58:31;16.98;;;14.43;;
18720;SDS011;9489;50.948;3.114;2023-06-05T04:00:57;16.67;;;14.52;;
18720;SDS011;9489;50.948;3.114;2023-06-05T04:03:23;15.40;;;13.77;;
18720;SDS011;9489;50.948;3.114;2023-06-05T04:05:50;21.42;;;15.75;;
18720;SDS011;9489;50.948;3.114;2023-06-05T04:08:17;15.85;;;14.25;;
18720;SDS011;9489;50.948;3.114;2023-06-05T04:10:42;18.20;;;14.65;;
18720;SDS011;9489;50.948;3.114;2023-06-05T04:13:08;16.83;;;15.07;;
18720;SDS011;9489;50.948;3.114;2023-06-05T04:15:34;18.27;;;15.05;;
18720;SDS011;9489;50.948;3.114;2023-06-05T04:18:00;17.90;;;15.65;;
18720;SDS011;9489;50.948;3.114;2023-06-05T04:20:25;19.60;;;16.80;;
18720;SDS011;9489;50.948;3.114;2023-06-05T04:22:51;16.95;;;15.02;;
18720;SDS011;9489;50.948;3.114;2023-06-05T04:25:17;16.98;;;14.88;;
18720;SDS011;9489;50.948;3.114;2023-06-05T04:27:43;17.50;;;15.73;;
18720;SDS011;9489;50.948;3.114;2023-06-05T04:30:10;18.08;;;15.35;;
18720;SDS011;9489;50.948;3.114;2023-06-05T04:32:37;18.13;;;15.07;;
18720;SDS011;9489;50.948;3.114;2023-06-05T04:35:04;16.40;;;14.73;;
18720;SDS011;9489;50.948;3.114;2023-06-05T04:37:34;20.10;;;15.50;;
18720;SDS011;9489;50.948;3.114;2023-06-05T04:40:02;17.90;;;15.38;;
18720;SDS011;9489;50.948;3.114;2023-06-05T04:42:35;16.17;;;14.27;;
18720;SDS011;9489;50.948;3.114;2023-06-05T04:45:02;18.95;;;16.27;;
18720;SDS011;9489;50.948;3.114;2023-06-05T04:47:30;16.55;;;14.82;;
18720;SDS011;9489;50.948;3.114;2023-06-05T04:50:00;16.67;;;14.98;;
18720;SDS011;9489;50.948;3.114;2023-06-05T04:52:28;15.57;;;14.13;;
18720;SDS011;9489;50.948;3.114;2023-06-05T04:54:58;15.75;;;14.05;;
18720;SDS011;9489;50.948;3.114;2023-06-05T04:57:26;16.08;;;14.20;;
18720;SDS011;9489;50.948;3.114;2023-06-05T04:59:53;20.55;;;16.27;;
18720;SDS011;9489;50.948;3.114;2023-06-05T05:02:19;18.27;;;14.93;;
18720;SDS011;9489;50.948;3.114;2023-06-05T05:04:45;16.95;;;14.68;;
18720;SDS011;9489;50.948;3.114;2023-06-05T05:07:12;18.85;;;15.98;;
18720;SDS011;9489;50.948;3.114;2023-06-05T05:09:44;17.23;;;14.52;;
18720;SDS011;9489;50.948;3.114;2023-06-05T05:12:10;15.68;;;14.07;;
18720;SDS011;9489;50.948;3.114;2023-06-05T05:14:36;16.50;;;14.38;;
18720;SDS011;9489;50.948;3.114;2023-06-05T05:17:03;16.55;;;13.63;;
18720;SDS011;9489;50.948;3.114;2023-06-05T05:19:29;15.25;;;13.75;;
18720;SDS011;9489;50.948;3.114;2023-06-05T05:21:55;15.73;;;13.57;;
18720;SDS011;9489;50.948;3.114;2023-06-05T05:24:21;15.88;;;14.02;;
18720;SDS011;9489;50.948;3.114;2023-06-05T05:26:47;16.38;;;14.70;;
18720;SDS011;9489;50.948;3.114;2023-06-05T05:29:13;16.08;;;14.38;;
18720;SDS011;9489;50.948;3.114;2023-06-05T05:31:39;14.77;;;12.88;;
18720;SDS011;9489;50.948;3.114;2023-06-05T05:34:04;14.68;;;13.27;;
18720;SDS011;9489;50.948;3.114;2023-06-05T05:36:30;14.52;;;13.02;;
18720;SDS011;9489;50.948;3.114;2023-06-05T05:38:58;14.88;;;13.40;;
18720;SDS011;9489;50.948;3.114;2023-06-05T05:41:24;14.40;;;12.57;;
18720;SDS011;9489;50.948;3.114;2023-06-05T05:43:49;14.20;;;12.90;;
18720;SDS011;9489;50.948;3.114;2023-06-05T05:46:15;16.42;;;13.00;;
18720;SDS011;9489;50.948;3.114;2023-06-05T05:48:41;14.15;;;12.70;;
18720;SDS011;9489;50.948;3.114;2023-06-05T05:51:07;13.02;;;11.70;;
18720;SDS011;9489;50.948;3.114;2023-06-05T05:53:32;14.07;;;12.35;;
18720;SDS011;9489;50.948;3.114;2023-06-05T05:55:59;14.95;;;13.15;;
18720;SDS011;9489;50.948;3.114;2023-06-05T05:58:25;14.48;;;12.57;;
18720;SDS011;9489;50.948;3.114;2023-06-05T06:00:51;14.05;;;12.73;;
18720;SDS011;9489;50.948;3.114;2023-06-05T06:03:17;13.93;;;12.18;;
18720;SDS011;9489;50.948;3.114;2023-06-05T06:05:43;14.50;;;13.00;;
18720;SDS011;9489;50.948;3.114;2023-06-05T06:08:12;13.27;;;11.98;;
18720;SDS011;9489;50.948;3.114;2023-06-05T06:10:38;13.40;;;12.05;;
18720;SDS011;9489;50.948;3.114;2023-06-05T06:13:04;13.35;;;12.13;;
18720;SDS011;9489;50.948;3.114;2023-06-05T06:15:31;13.43;;;12.13;;
18720;SDS011;9489;50.948;3.114;2023-06-05T06:17:57;14.32;;;12.93;;
18720;SDS011;9489;50.948;3.114;2023-06-05T06:20:25;13.45;;;12.05;;
18720;SDS011;9489;50.948;3.114;2023-06-05T06:22:50;13.50;;;12.30;;
18720;SDS011;9489;50.948;3.114;2023-06-05T06:25:20;13.55;;;12.27;;
18720;SDS011;9489;50.948;3.114;2023-06-05T06:27:46;12.52;;;11.32;;
18720;SDS011;9489;50.948;3.114;2023-06-05T06:30:15;12.80;;;11.60;;
18720;SDS011;9489;50.948;3.114;2023-06-05T06:32:40;12.65;;;11.45;;
18720;SDS011;9489;50.948;3.114;2023-06-05T06:35:06;12.48;;;11.27;;
18720;SDS011;9489;50.948;3.114;2023-06-05T06:37:32;12.70;;;11.45;;
18720;SDS011;9489;50.948;3.114;2023-06-05T06:39:58;13.10;;;11.93;;
18720;SDS011;9489;50.948;3.114;2023-06-05T06:42:24;13.30;;;11.98;;
18720;SDS011;9489;50.948;3.114;2023-06-05T06:44:53;12.00;;;10.90;;
18720;SDS011;9489;50.948;3.114;2023-06-05T06:47:23;12.90;;;11.60;;
18720;SDS011;9489;50.948;3.114;2023-06-05T06:49:50;11.73;;;10.73;;
18720;SDS011;9489;50.948;3.114;2023-06-05T06:52:16;12.98;;;11.70;;
18720;SDS011;9489;50.948;3.114;2023-06-05T06:54:43;12.38;;;11.25;;
18720;SDS011;9489;50.948;3.114;2023-06-05T06:57:09;13.40;;;12.20;;
18720;SDS011;9489;50.948;3.114;2023-06-05T06:59:35;12.65;;;11.52;;
18720;SDS011;9489;50.948;3.114;2023-06-05T07:04:45;11.88;;;10.77;;
18720;SDS011;9489;50.948;3.114;2023-06-05T07:07:12;12.52;;;11.30;;
18720;SDS011;9489;50.948;3.114;2023-06-05T07:09:40;11.65;;;10.38;;
18720;SDS011;9489;50.948;3.114;2023-06-05T07:12:15;12.02;;;10.82;;
18720;SDS011;9489;50.948;3.114;2023-06-05T07:14:44;12.70;;;11.50;;
18720;SDS011;9489;50.948;3.114;2023-06-05T07:17:10;12.05;;;10.93;;
18720;SDS011;9489;50.948;3.114;2023-06-05T07:19:36;10.75;;;9.90;;
18720;SDS011;9489;50.948;3.114;2023-06-05T07:22:02;10.57;;;9.57;;
18720;SDS011;9489;50.948;3.114;2023-06-05T07:24:32;10.95;;;9.90;;
18720;SDS011;9489;50.948;3.114;2023-06-05T07:27:00;10.63;;;9.05;;
18720;SDS011;9489;50.948;3.114;2023-06-05T07:29:27;11.63;;;10.57;;
18720;SDS011;9489;50.948;3.114;2023-06-05T07:31:54;10.77;;;9.50;;
18720;SDS011;9489;50.948;3.114;2023-06-05T07:34:20;10.80;;;9.70;;
18720;SDS011;9489;50.948;3.114;2023-06-05T07:36:47;11.18;;;10.18;;
18720;SDS011;9489;50.948;3.114;2023-06-05T07:39:15;10.60;;;9.60;;
18720;SDS011;9489;50.948;3.114;2023-06-05T07:41:42;9.57;;;8.73;;
18720;SDS011;9489;50.948;3.114;2023-06-05T07:44:11;9.25;;;8.48;;
18720;SDS011;9489;50.948;3.114;2023-06-05T07:46:40;9.55;;;8.07;;
18720;SDS011;9489;50.948;3.114;2023-06-05T07:49:07;9.25;;;8.30;;
18720;SDS011;9489;50.948;3.114;2023-06-05T07:51:34;9.65;;;8.57;;
18720;SDS011;9489;50.948;3.114;2023-06-05T07:54:05;11.75;;;8.63;;
18720;SDS011;9489;50.948;3.114;2023-06-05T07:56:32;9.35;;;8.40;;
18720;SDS011;9489;50.948;3.114;2023-06-05T07:58:58;9.20;;;8.27;;
18720;SDS011;9489;50.948;3.114;2023-06-05T08:01:24;8.88;;;8.15;;
18720;SDS011;9489;50.948;3.114;2023-06-05T08:03:50;10.00;;;9.10;;
18720;SDS011;9489;50.948;3.114;2023-06-05T08:06:16;9.10;;;7.88;;
18720;SDS011;9489;50.948;3.114;2023-06-05T08:08:42;8.90;;;8.00;;
18720;SDS011;9489;50.948;3.114;2023-06-05T08:11:08;16.10;;;9.65;;
18720;SDS011;9489;50.948;3.114;2023-06-05T08:13:34;28.38;;;10.65;;
18720;SDS011;9489;50.948;3.114;2023-06-05T08:16:01;21.95;;;10.15;;
18720;SDS011;9489;50.948;3.114;2023-06-05T08:18:27;10.35;;;8.10;;
18720;SDS011;9489;50.948;3.114;2023-06-05T08:20:53;27.63;;;10.32;;
18720;SDS011;9489;50.948;3.114;2023-06-05T08:23:18;8.05;;;7.35;;
18720;SDS011;9489;50.948;3.114;2023-06-05T08:25:44;11.68;;;8.00;;
18720;SDS011;9489;50.948;3.114;2023-06-05T08:28:10;7.88;;;7.15;;
18720;SDS011;9489;50.948;3.114;2023-06-05T08:30:35;8.55;;;7.90;;
18720;SDS011;9489;50.948;3.114;2023-06-05T08:33:01;7.70;;;6.93;;
18720;SDS011;9489;50.948;3.114;2023-06-05T08:35:27;8.02;;;7.32;;
18720;SDS011;9489;50.948;3.114;2023-06-05T08:37:53;8.27;;;7.57;;
18720;SDS011;9489;50.948;3.114;2023-06-05T08:40:19;8.13;;;7.35;;
18720;SDS011;9489;50.948;3.114;2023-06-05T08:42:45;7.50;;;6.80;;
18720;SDS011;9489;50.948;3.114;2023-06-05T08:45:11;7.43;;;6.82;;
18720;SDS011;9489;50.948;3.114;2023-06-05T08:47:37;8.30;;;7.60;;
18720;SDS011;9489;50.948;3.114;2023-06-05T08:50:04;7.72;;;7.05;;
18720;SDS011;9489;50.948;3.114;2023-06-05T08:52:37;8.90;;;8.10;;
18720;SDS011;9489;50.948;3.114;2023-06-05T08:55:04;10.82;;;7.80;;
18720;SDS011;9489;50.948;3.114;2023-06-05T08:57:40;8.10;;;7.40;;
18720;SDS011;9489;50.948;3.114;2023-06-05T09:00:06;10.60;;;7.65;;
18720;SDS011;9489;50.948;3.114;2023-06-05T09:02:36;7.15;;;6.50;;
18720;SDS011;9489;50.948;3.114;2023-06-05T09:05:04;7.75;;;6.90;;
18720;SDS011;9489;50.948;3.114;2023-06-05T09:07:30;36.45;;;11.15;;
18720;SDS011;9489;50.948;3.114;2023-06-05T09:09:56;11.55;;;8.15;;
18720;SDS011;9489;50.948;3.114;2023-06-05T09:12:22;7.40;;;6.70;;
18720;SDS011;9489;50.948;3.114;2023-06-05T09:14:49;7.25;;;6.55;;
18720;SDS011;9489;50.948;3.114;2023-06-05T09:17:15;7.25;;;6.60;;
18720;SDS011;9489;50.948;3.114;2023-06-05T09:19:42;7.45;;;6.75;;
18720;SDS011;9489;50.948;3.114;2023-06-05T09:22:08;16.02;;;7.70;;
18720;SDS011;9489;50.948;3.114;2023-06-05T09:24:39;7.63;;;6.72;;
18720;SDS011;9489;50.948;3.114;2023-06-05T09:27:17;8.25;;;6.97;;
18720;SDS011;9489;50.948;3.114;2023-06-05T09:29:43;7.47;;;6.88;;
18720;SDS011;9489;50.948;3.114;2023-06-05T09:34:44;8.02;;;7.40;;
18720;SDS011;9489;50.948;3.114;2023-06-05T09:37:11;7.03;;;6.53;;
18720;SDS011;9489;50.948;3.114;2023-06-05T09:39:38;7.22;;;5.72;;
18720;SDS011;9489;50.948;3.114;2023-06-05T09:42:05;7.45;;;6.72;;
18720;SDS011;9489;50.948;3.114;2023-06-05T09:44:31;7.70;;;6.95;;
18720;SDS011;9489;50.948;3.114;2023-06-05T09:47:08;25.83;;;9.98;;
18720;SDS011;9489;50.948;3.114;2023-06-05T09:52:07;6.72;;;6.13;;
18720;SDS011;9489;50.948;3.114;2023-06-05T09:54:34;8.05;;;6.55;;
18720;SDS011;9489;50.948;3.114;2023-06-05T09:57:05;20.50;;;8.10;;
18720;SDS011;9489;50.948;3.114;2023-06-05T09:59:35;6.25;;;5.68;;
18720;SDS011;9489;50.948;3.114;2023-06-05T10:02:15;8.80;;;5.90;;
18720;SDS011;9489;50.948;3.114;2023-06-05T10:04:45;9.95;;;6.05;;
18720;SDS011;9489;50.948;3.114;2023-06-05T10:07:13;7.47;;;6.80;;
18720;SDS011;9489;50.948;3.114;2023-06-05T10:09:40;6.80;;;6.20;;
18720;SDS011;9489;50.948;3.114;2023-06-05T10:12:07;6.97;;;6.38;;
18720;SDS011;9489;50.948;3.114;2023-06-05T10:14:36;9.77;;;6.63;;
18720;SDS011;9489;50.948;3.114;2023-06-05T10:17:05;13.15;;;7.72;;
18720;SDS011;9489;50.948;3.114;2023-06-05T10:19:32;19.92;;;9.93;;
18720;SDS011;9489;50.948;3.114;2023-06-05T10:21:58;6.78;;;6.18;;
18720;SDS011;9489;50.948;3.114;2023-06-05T10:24:37;6.45;;;5.90;;
18720;SDS011;9489;50.948;3.114;2023-06-05T10:29:43;12.10;;;8.35;;
18720;SDS011;9489;50.948;3.114;2023-06-05T10:40:18;7.10;;;6.50;;
18720;SDS011;9489;50.948;3.114;2023-06-05T10:42:45;6.05;;;5.55;;
18720;SDS011;9489;50.948;3.114;2023-06-05T10:45:11;6.07;;;5.57;;
18720;SDS011;9489;50.948;3.114;2023-06-05T10:52:49;6.60;;;5.57;;
18720;SDS011;9489;50.948;3.114;2023-06-05T10:55:15;6.68;;;6.07;;
18720;SDS011;9489;50.948;3.114;2023-06-05T11:00:26;7.05;;;6.53;;
18720;SDS011;9489;50.948;3.114;2023-06-05T11:02:53;7.35;;;6.75;;
18720;SDS011;9489;50.948;3.114;2023-06-05T11:05:18;6.97;;;6.22;;
18720;SDS011;9489;50.948;3.114;2023-06-05T11:07:45;7.78;;;7.18;;
18720;SDS011;9489;50.948;3.114;2023-06-05T11:10:11;6.90;;;6.20;;
18720;SDS011;9489;50.948;3.114;2023-06-05T11:15:15;7.32;;;6.65;;
18720;SDS011;9489;50.948;3.114;2023-06-05T11:17:42;7.35;;;6.68;;
18720;SDS011;9489;50.948;3.114;2023-06-05T11:20:55;7.22;;;6.68;;
18720;SDS011;9489;50.948;3.114;2023-06-05T11:25:24;7.45;;;6.25;;
18720;SDS011;9489;50.948;3.114;2023-06-05T11:28:04;7.13;;;6.43;;
18720;SDS011;9489;50.948;3.114;2023-06-05T11:30:33;7.90;;;7.20;;
18720;SDS011;9489;50.948;3.114;2023-06-05T11:35:41;7.03;;;6.43;;
18720;SDS011;9489;50.948;3.114;2023-06-05T11:38:10;8.00;;;7.30;;
18720;SDS011;9489;50.948;3.114;2023-06-05T11:40:38;7.50;;;6.93;;
18720;SDS011;9489;50.948;3.114;2023-06-05T11:43:05;9.85;;;7.60;;
18720;SDS011;9489;50.948;3.114;2023-06-05T11:45:32;6.88;;;6.18;;
18720;SDS011;9489;50.948;3.114;2023-06-05T11:48:04;6.90;;;6.32;;
18720;SDS011;9489;50.948;3.114;2023-06-05T11:50:33;8.25;;;7.47;;
18720;SDS011;9489;50.948;3.114;2023-06-05T11:53:03;18.45;;;8.25;;
18720;SDS011;9489;50.948;3.114;2023-06-05T11:55:33;6.30;;;5.80;;
18720;SDS011;9489;50.948;3.114;2023-06-05T11:58:20;6.90;;;6.40;;
18720;SDS011;9489;50.948;3.114;2023-06-05T12:00:49;17.50;;;8.23;;
18720;SDS011;9489;50.948;3.114;2023-06-05T12:03:19;8.40;;;7.20;;
18720;SDS011;9489;50.948;3.114;2023-06-05T12:05:48;6.50;;;6.00;;
18720;SDS011;9489;50.948;3.114;2023-06-05T12:08:25;9.48;;;7.35;;
18720;SDS011;9489;50.948;3.114;2023-06-05T12:10:52;8.45;;;7.15;;
18720;SDS011;9489;50.948;3.114;2023-06-05T12:13:18;21.90;;;8.73;;
18720;SDS011;9489;50.948;3.114;2023-06-05T12:15:55;7.05;;;6.35;;
18720;SDS011;9489;50.948;3.114;2023-06-05T12:18:30;7.90;;;7.10;;
18720;SDS011;9489;50.948;3.114;2023-06-05T12:20:57;7.50;;;6.80;;
18720;SDS011;9489;50.948;3.114;2023-06-05T12:23:23;7.80;;;7.20;;
18720;SDS011;9489;50.948;3.114;2023-06-05T12:25:59;7.95;;;7.25;;
18720;SDS011;9489;50.948;3.114;2023-06-05T12:28:26;7.43;;;6.53;;
18720;SDS011;9489;50.948;3.114;2023-06-05T12:30:53;8.43;;;6.57;;
18720;SDS011;9489;50.948;3.114;2023-06-05T12:33:19;7.78;;;7.18;;
18720;SDS011;9489;50.948;3.114;2023-06-05T12:35:45;10.48;;;6.40;;
18720;SDS011;9489;50.948;3.114;2023-06-05T12:38:11;8.05;;;7.20;;
18720;SDS011;9489;50.948;3.114;2023-06-05T12:40:37;6.72;;;6.13;;
18720;SDS011;9489;50.948;3.114;2023-06-05T12:43:02;7.55;;;6.90;;
18720;SDS011;9489;50.948;3.114;2023-06-05T12:45:28;48.08;;;13.73;;
18720;SDS011;9489;50.948;3.114;2023-06-05T12:47:55;6.60;;;6.00;;
18720;SDS011;9489;50.948;3.114;2023-06-05T12:50:21;7.72;;;5.85;;
18720;SDS011;9489;50.948;3.114;2023-06-05T12:52:47;6.80;;;6.20;;
18720;SDS011;9489;50.948;3.114;2023-06-05T12:55:12;6.05;;;5.55;;
18720;SDS011;9489;50.948;3.114;2023-06-05T12:57:38;8.95;;;7.00;;
18720;SDS011;9489;50.948;3.114;2023-06-05T13:00:04;10.43;;;7.10;;
18720;SDS011;9489;50.948;3.114;2023-06-05T13:02:41;7.80;;;7.00;;
18720;SDS011;9489;50.948;3.114;2023-06-05T13:05:12;7.93;;;6.22;;
18720;SDS011;9489;50.948;3.114;2023-06-05T13:07:38;8.25;;;7.45;;
18720;SDS011;9489;50.948;3.114;2023-06-05T13:10:05;8.13;;;6.88;;
18720;SDS011;9489;50.948;3.114;2023-06-05T13:12:31;8.35;;;6.65;;
18720;SDS011;9489;50.948;3.114;2023-06-05T13:14:57;8.00;;;6.93;;
18720;SDS011;9489;50.948;3.114;2023-06-05T13:17:22;7.30;;;6.68;;
18720;SDS011;9489;50.948;3.114;2023-06-05T13:19:49;8.57;;;7.72;;
18720;SDS011;9489;50.948;3.114;2023-06-05T13:22:15;7.13;;;6.38;;
18720;SDS011;9489;50.948;3.114;2023-06-05T13:24:41;8.15;;;6.50;;
18720;SDS011;9489;50.948;3.114;2023-06-05T13:27:07;7.07;;;6.43;;
18720;SDS011;9489;50.948;3.114;2023-06-05T13:29:33;6.72;;;6.13;;
18720;SDS011;9489;50.948;3.114;2023-06-05T13:31:58;7.43;;;6.72;;
18720;SDS011;9489;50.948;3.114;2023-06-05T13:34:24;6.95;;;6.28;;
18720;SDS011;9489;50.948;3.114;2023-06-05T13:36:50;58.80;;;15.73;;
18720;SDS011;9489;50.948;3.114;2023-06-05T13:39:15;8.77;;;7.47;;
18720;SDS011;9489;50.948;3.114;2023-06-05T13:41:41;13.00;;;7.65;;
18720;SDS011;9489;50.948;3.114;2023-06-05T13:44:06;10.13;;;6.40;;
18720;SDS011;9489;50.948;3.114;2023-06-05T13:46:32;8.00;;;6.70;;
18720;SDS011;9489;50.948;3.114;2023-06-05T13:49:00;7.85;;;6.93;;
18720;SDS011;9489;50.948;3.114;2023-06-05T13:51:26;7.38;;;6.40;;
18720;SDS011;9489;50.948;3.114;2023-06-05T13:53:53;7.70;;;6.90;;
18720;SDS011;9489;50.948;3.114;2023-06-05T13:56:21;10.60;;;7.55;;
18720;SDS011;9489;50.948;3.114;2023-06-05T13:58:47;8.00;;;6.53;;
18720;SDS011;9489;50.948;3.114;2023-06-05T14:01:13;7.72;;;6.60;;
18720;SDS011;9489;50.948;3.114;2023-06-05T14:03:39;9.70;;;7.20;;
18720;SDS011;9489;50.948;3.114;2023-06-05T14:06:05;70.63;;;17.70;;
18720;SDS011;9489;50.948;3.114;2023-06-05T14:08:30;19.65;;;8.30;;
18720;SDS011;9489;50.948;3.114;2023-06-05T14:10:58;7.68;;;6.90;;
18720;SDS011;9489;50.948;3.114;2023-06-05T14:13:24;7.82;;;7.15;;
18720;SDS011;9489;50.948;3.114;2023-06-05T14:15:49;7.75;;;7.05;;
18720;SDS011;9489;50.948;3.114;2023-06-05T14:18:15;9.20;;;7.63;;
18720;SDS011;9489;50.948;3.114;2023-06-05T14:20:41;6.65;;;5.93;;
18720;SDS011;9489;50.948;3.114;2023-06-05T14:23:06;9.00;;;6.50;;
18720;SDS011;9489;50.948;3.114;2023-06-05T14:25:32;8.63;;;7.22;;
18720;SDS011;9489;50.948;3.114;2023-06-05T14:27:58;8.05;;;6.53;;
18720;SDS011;9489;50.948;3.114;2023-06-05T14:30:24;8.55;;;7.03;;
18720;SDS011;9489;50.948;3.114;2023-06-05T14:32:53;8.07;;;7.22;;
18720;SDS011;9489;50.948;3.114;2023-06-05T14:35:20;8.52;;;7.70;;
18720;SDS011;9489;50.948;3.114;2023-06-05T14:37:47;16.98;;;9.85;;
18720;SDS011;9489;50.948;3.114;2023-06-05T14:40:13;13.85;;;8.23;;
18720;SDS011;9489;50.948;3.114;2023-06-05T14:42:38;11.02;;;7.88;;
18720;SDS011;9489;50.948;3.114;2023-06-05T14:45:04;9.82;;;7.93;;
18720;SDS011;9489;50.948;3.114;2023-06-05T14:47:31;9.45;;;7.65;;
18720;SDS011;9489;50.948;3.114;2023-06-05T14:49:57;8.93;;;8.05;;
18720;SDS011;9489;50.948;3.114;2023-06-05T14:52:23;9.85;;;8.30;;
18720;SDS011;9489;50.948;3.114;2023-06-05T14:54:49;8.55;;;7.55;;
18720;SDS011;9489;50.948;3.114;2023-06-05T14:57:14;9.88;;;7.55;;
18720;SDS011;9489;50.948;3.114;2023-06-05T14:59:40;9.20;;;7.07;;
18720;SDS011;9489;50.948;3.114;2023-06-05T15:02:06;11.73;;;7.00;;
18720;SDS011;9489;50.948;3.114;2023-06-05T15:04:32;10.07;;;7.35;;
18720;SDS011;9489;50.948;3.114;2023-06-05T15:06:59;12.07;;;7.53;;
18720;SDS011;9489;50.948;3.114;2023-06-05T15:09:24;10.60;;;8.02;;
18720;SDS011;9489;50.948;3.114;2023-06-05T15:11:50;8.35;;;7.50;;
18720;SDS011;9489;50.948;3.114;2023-06-05T15:14:17;10.38;;;8.27;;
18720;SDS011;9489;50.948;3.114;2023-06-05T15:16:43;9.60;;;8.60;;
18720;SDS011;9489;50.948;3.114;2023-06-05T15:19:09;7.97;;;7.15;;
18720;SDS011;9489;50.948;3.114;2023-06-05T15:21:35;10.15;;;8.23;;
18720;SDS011;9489;50.948;3.114;2023-06-05T15:24:01;9.60;;;7.93;;
18720;SDS011;9489;50.948;3.114;2023-06-05T15:26:27;11.52;;;7.90;;
18720;SDS011;9489;50.948;3.114;2023-06-05T15:28:53;10.50;;;6.90;;
18720;SDS011;9489;50.948;3.114;2023-06-05T15:31:18;9.13;;;7.68;;